Time;durP1;ratioP1;P1;durP2;ratioP2;P2;SDS_P1;SDS_P2;PMS_P1;PMS_P2;Temp;Humidity;BMP_temperature;BMP_pressure;BME280_temperature;BME280_humidity;BME280_pressure;Samples;Min_cycle;Max_cycle;Signal;HPM_P1;HPM_P2
2022/11/10 00:00:32;;;;;;;;;;;;;;;;;;5097441;22;4132;-77
2022/11/10 00:03:17;;;;;;;;;;;;;;;;;;5100894;28;1132;-78
2022/11/10 00:06:03;;;;;;;;;;;;;;;;;;5103257;28;661;-78
2022/11/10 00:08:47;;;;;;;;;;;;;;;;;;5098685;28;661;-78
2022/11/10 00:11:32;;;;;;;;;;;;;;;;;;5093701;28;1442;-78
2022/11/10 00:17:20;;;;;;;;;;;;;;;;;;5079664;28;1017;-78
2022/11/10 00:20:05;;;;;;;;;;;;;;;;;;5095786;28;1973;-78
2022/11/10 00:22:51;;;;;;;;;;;;;;;;;;5095647;28;610;-79
2022/11/10 00:25:35;;;;;;;;;;;;;;;;;;5096614;28;603;-78
2022/11/10 00:28:20;;;;;;;;;;;;;;;;;;5101800;28;600;-78
2022/11/10 00:31:07;;;;;;;;;;;;;;;;;;5098177;28;1353;-79
2022/11/10 00:33:51;;;;;;;;;;;;;;;;;;5076421;28;747;-79
2022/11/10 00:36:36;;;;;;;;;;;;;;;;;;5076895;28;685;-79
2022/11/10 00:39:21;;;;;;;;;;;;;;;;;;5084422;28;1425;-78
2022/11/10 00:42:06;;;;;;;;;;;;;;;;;;5100381;28;1906;-78
2022/11/10 00:44:51;;;;;;;;;;;;;;;;;;5097842;28;640;-78
2022/11/10 00:47:38;;;;;;;;;;;;;;;;;;5099432;28;1160;-77
2022/11/10 00:50:23;;;;;;;;;;;;;;;;;;5100227;28;1347;-79
2022/11/10 00:53:08;;;;;;;;;;;;;;;;;;5096567;28;604;-80
2022/11/10 00:55:52;;;;;;;;;;;;;;;;;;5097119;28;768;-79
2022/11/10 00:58:37;;;;;;;;;;;;;;;;;;5098929;28;651;-78
2022/11/10 01:01:23;;;;;;;;;;;;;;;;;;5099991;28;1898;-77
2022/11/10 01:04:09;;;;;;;;;;;;;;;;;;5098269;28;1376;-79
2022/11/10 01:06:54;;;;;;;;;;;;;;;;;;5096678;28;657;-79
2022/11/10 01:09:39;;;;;;;;;;;;;;;;;;5096469;28;1302;-80
2022/11/10 01:12:23;;;;;;;;;;;;;;;;;;5095811;28;604;-78
2022/11/10 01:15:09;;;;;;;;;;;;;;;;;;5096312;28;640;-79
2022/11/10 01:17:54;;;;;;;;;;;;;;;;;;5095863;28;1333;-79
2022/11/10 01:20:40;;;;;;;;;;;;;;;;;;5094769;28;1910;-78
2022/11/10 01:23:25;;;;;;;;;;;;;;;;;;5096834;28;668;-79
2022/11/10 01:26:10;;;;;;;;;;;;;;;;;;5096671;28;1400;-79
2022/11/10 01:28:55;;;;;;;;;;;;;;;;;;5097159;28;610;-79
2022/11/10 01:31:39;;;;;;;;;;;;;;;;;;5090924;28;1372;-79
2022/11/10 01:34:24;;;;;;;;;;;;;;;;;;5095421;28;658;-78
2022/11/10 01:37:11;;;;;;;;;;;;;;;;;;5095473;28;1344;-79
2022/11/10 01:39:55;;;;;;;;;;;;;;;;;;5095146;28;1337;-79
2022/11/10 01:42:45;;;;;;;;;;;;;;;;;;5095747;28;608;-78
2022/11/10 01:45:39;;;;;;;;;;;;;;;;;;5096474;28;1424;-80
2022/11/10 01:48:27;;;;;;;;;;;;;;;;;;5095919;28;624;-79
2022/11/10 01:51:13;;;;;;;;;;;;;;;;;;5095756;28;1440;-79
2022/11/10 01:54:00;;;;;;;;;;;;;;;;;;5096129;28;675;-79
2022/11/10 01:56:45;;;;;;;;;;;;;;;;;;5095891;28;1582;-78
2022/11/10 01:59:31;;;;;;;;;;;;;;;;;;5096147;28;1379;-78
2022/11/10 02:02:17;;;;;;;;;;;;;;;;;;5095400;28;1970;-79
2022/11/10 02:05:02;;;;;;;;;;;;;;;;;;5095556;28;671;-78
2022/11/10 02:07:47;;;;;;;;;;;;;;;;;;5096069;28;687;-79
2022/11/10 02:10:33;;;;;;;;;;;;;;;;;;5094981;28;1423;-79
2022/11/10 02:13:18;;;;;;;;;;;;;;;;;;5093951;28;579;-79
2022/11/10 02:16:04;;;;;;;;;;;;;;;;;;5096983;28;602;-79
2022/11/10 02:18:48;;;;;;;;;;;;;;;;;;5096504;28;636;-78
2022/11/10 02:21:35;;;;;;;;;;;;;;;;;;5093946;28;1910;-79
2022/11/10 02:24:20;;;;;;;;;;;;;;;;;;5074825;28;602;-78
2022/11/10 02:27:04;;;;;;;;;;;;;;;;;;5075175;28;679;-79
2022/11/10 02:29:49;;;;;;;;;;;;;;;;;;5074347;28;1340;-79
2022/11/10 02:32:34;;;;;;;;;;;;;;;;;;5085402;28;1467;-79
2022/11/10 02:35:18;;;;;;;;;;;;;;;;;;5095454;28;588;-79
2022/11/10 02:38:05;;;;;;;;;;;;;;;;;;5094634;28;627;-79
2022/11/10 02:40:49;;;;;;;;;;;;;;;;;;5094034;28;1886;-79
2022/11/10 02:43:36;;;;;;;;;;;;;;;;;;5093447;28;1419;-79
2022/11/10 02:46:21;;;;;;;;;;;;;;;;;;5095086;28;731;-78
2022/11/10 02:49:06;;;;;;;;;;;;;;;;;;5094401;28;583;-79
2022/11/10 02:51:51;;;;;;;;;;;;;;;;;;5092270;28;2739;-79
2022/11/10 02:54:37;;;;;;;;;;;;;;;;;;5087694;28;1019;-78
2022/11/10 02:57:22;;;;;;;;;;;;;;;;;;5093518;28;1329;-79
2022/11/10 03:00:08;;;;;;;;;;;;;;;;;;5103874;28;1340;-79
2022/11/10 03:02:55;;;;;;;;;;;;;;;;;;5099643;28;1903;-79
2022/11/10 03:05:40;;;;;;;;;;;;;;;;;;5097703;28;602;-79
2022/11/10 03:08:25;;;;;;;;;;;;;;;;;;5097616;28;1415;-77
2022/11/10 03:11:11;;;;;;;;;;;;;;;;;;5098732;28;1389;-80
2022/11/10 03:13:55;;;;;;;;;;;;;;;;;;5099723;28;625;-79
2022/11/10 03:16:40;;;;;;;;;;;;;;;;;;5100279;28;664;-79
2022/11/10 03:19:25;;;;;;;;;;;;;;;;;;5098778;28;1444;-79
2022/11/10 03:22:10;;;;;;;;;;;;;;;;;;5097278;28;1902;-79
2022/11/10 03:24:55;;;;;;;;;;;;;;;;;;5098831;28;693;-79
2022/11/10 03:27:41;;;;;;;;;;;;;;;;;;5098536;28;1396;-79
2022/11/10 03:30:25;;;;;;;;;;;;;;;;;;5097751;28;1413;-78
2022/11/10 03:33:10;;;;;;;;;;;;;;;;;;5098241;28;645;-80
2022/11/10 03:35:55;;;;;;;;;;;;;;;;;;5098084;28;690;-79
2022/11/10 03:38:40;;;;;;;;;;;;;;;;;;5097588;28;1348;-80
2022/11/10 03:41:25;;;;;;;;;;;;;;;;;;5097669;28;1973;-81
2022/11/10 03:44:11;;;;;;;;;;;;;;;;;;5098111;28;679;-79
2022/11/10 03:46:56;;;;;;;;;;;;;;;;;;5097295;28;696;-80
2022/11/10 03:49:41;;;;;;;;;;;;;;;;;;5098202;28;1302;-79
2022/11/10 03:52:26;;;;;;;;;;;;;;;;;;5096839;28;1376;-80
2022/11/10 03:55:11;;;;;;;;;;;;;;;;;;5097396;28;600;-80
2022/11/10 03:57:56;;;;;;;;;;;;;;;;;;5097915;28;725;-79
2022/11/10 04:00:42;;;;;;;;;;;;;;;;;;5096736;28;1433;-80
2022/11/10 04:03:27;;;;;;;;;;;;;;;;;;5094435;28;1573;-79
2022/11/10 04:09:14;;;;;;;;;;;;;;;;;;5080520;28;620;-79
2022/11/10 04:18:23;;;;;;;;;;;;;;;;;;5102135;28;657;-78
2022/11/10 04:21:08;;;;;;;;;;;;;;;;;;5097663;28;1910;-80
2022/11/10 04:23:53;;;;;;;;;;;;;;;;;;5081343;28;1427;-76
2022/11/10 04:26:39;;;;;;;;;;;;;;;;;;5018278;28;623;-75
2022/11/10 04:29:24;;;;;;;;;;;;;;;;;;5038111;28;1405;-75
2022/11/10 04:32:09;;;;;;;;;;;;;;;;;;5027603;28;1184;-75
2022/11/10 04:34:55;;;;;;;;;;;;;;;;;;5027157;28;1269;-75
2022/11/10 04:37:41;;;;;;;;;;;;;;;;;;5027144;28;627;-75
2022/11/10 04:40:26;;;;;;;;;;;;;;;;;;5025197;28;1318;-75
2022/11/10 04:43:12;;;;;;;;;;;;;;;;;;5031965;28;1938;-75
2022/11/10 04:45:57;;;;;;;;;;;;;;;;;;5022502;28;1299;-75
2022/11/10 04:48:42;;;;;;;;;;;;;;;;;;5030674;28;946;-75
2022/11/10 04:51:30;;;;;;;;;;;;;;;;;;5027359;28;1358;-76
2022/11/10 04:54:15;;;;;;;;;;;;;;;;;;5046201;28;1580;-76
2022/11/10 04:57:00;;;;;;;;;;;;;;;;;;5025477;28;623;-74
2022/11/10 04:59:45;;;;;;;;;;;;;;;;;;5025536;28;1352;-76
2022/11/10 05:02:30;;;;;;;;;;;;;;;;;;5002631;28;1902;-76
2022/11/10 05:05:15;;;;;;;;;;;;;;;;;;5003971;28;627;-75
2022/11/10 05:08:02;;;;;;;;;;;;;;;;;;5010508;28;1420;-74
2022/11/10 05:10:47;;;;;;;;;;;;;;;;;;5026109;28;1333;-76
2022/11/10 05:13:32;;;;;;;;;;;;;;;;;;5024578;28;1244;-76
2022/11/10 05:16:17;;;;;;;;;;;;;;;;;;5038514;28;1034;-75
2022/11/10 05:19:02;;;;;;;;;;;;;;;;;;5063618;28;1446;-76
2022/11/10 05:21:47;;;;;;;;;;;;;;;;;;5090772;28;1965;-77
2022/11/10 05:24:33;;;;;;;;;;;;;;;;;;5095498;28;1463;-78
2022/11/10 05:27:18;;;;;;;;;;;;;;;;;;5089776;28;1395;-77
2022/11/10 05:30:03;;;;;;;;;;;;;;;;;;5087413;28;1496;-76
2022/11/10 05:32:48;;;;;;;;;;;;;;;;;;5092177;28;1257;-76
2022/11/10 05:35:33;;;;;;;;;;;;;;;;;;5089678;28;1327;-77
2022/11/10 05:38:18;;;;;;;;;;;;;;;;;;5093160;28;1173;-76
2022/11/10 05:41:04;;;;;;;;;;;;;;;;;;5092499;28;1530;-76
2022/11/10 05:43:49;;;;;;;;;;;;;;;;;;5092185;28;1465;-77
2022/11/10 05:46:34;;;;;;;;;;;;;;;;;;5094404;28;1480;-76
2022/11/10 05:49:19;;;;;;;;;;;;;;;;;;5093124;28;650;-75
2022/11/10 05:52:03;;;;;;;;;;;;;;;;;;5074251;28;1588;-77
2022/11/10 05:54:48;;;;;;;;;;;;;;;;;;5083104;28;1401;-77
2022/11/10 05:57:34;;;;;;;;;;;;;;;;;;5092360;28;912;-77
2022/11/10 06:00:21;;;;;;;;;;;;;;;;;;5093536;28;1344;-76
2022/11/10 06:03:06;;;;;;;;;;;;;;;;;;5092066;28;1973;-77
2022/11/10 06:05:52;;;;;;;;;;;;;;;;;;5093553;28;1451;-78
2022/11/10 06:08:36;;;;;;;;;;;;;;;;;;5120459;22;3576;-73
2022/11/10 06:11:21;;;;;;;;;;;;;;;;;;5112372;28;999;-71
2022/11/10 06:14:07;;;;;;;;;;;;;;;;;;5111000;28;1406;-72
2022/11/10 06:16:52;;;;;;;;;;;;;;;;;;5112154;28;1390;-70
2022/11/10 06:19:37;;;;;;;;;;;;;;;;;;5112143;28;587;-73
2022/11/10 06:22:22;;;;;;;;;;;;;;;;;;5086312;28;1966;-71
2022/11/10 06:25:07;;;;;;;;;;;;;;;;;;5073345;28;1396;-73
2022/11/10 06:27:52;;;;;;;;;;;;;;;;;;5084608;28;1407;-74
2022/11/10 06:30:38;;;;;;;;;;;;;;;;;;5087527;28;1538;-73
2022/11/10 06:33:23;;;;;;;;;;;;;;;;;;5083566;28;1380;-73
2022/11/10 06:36:08;;;;;;;;;;;;;;;;;;5102343;28;1376;-73
2022/11/10 06:38:53;;;;;;;;;;;;;;;;;;5099991;28;1399;-73
2022/11/10 06:41:38;;;;;;;;;;;;;;;;;;5094573;28;900;-72
2022/11/10 06:44:22;;;;;;;;;;;;;;;;;;5093242;28;1423;-72
2022/11/10 06:47:09;;;;;;;;;;;;;;;;;;5095792;28;1329;-74
2022/11/10 06:49:53;;;;;;;;;;;;;;;;;;5094494;28;604;-73
2022/11/10 06:52:38;;;;;;;;;;;;;;;;;;5091889;28;1442;-74
2022/11/10 06:55:23;;;;;;;;;;;;;;;;;;5102961;28;1208;-75
2022/11/10 06:58:08;;;;;;;;;;;;;;;;;;5105130;28;1477;-73
2022/11/10 07:00:53;;;;;;;;;;;;;;;;;;5089212;28;1400;-75
2022/11/10 07:03:39;;;;;;;;;;;;;;;;;;5091035;28;1914;-74
2022/11/10 07:06:24;;;;;;;;;;;;;;;;;;5098469;28;1107;-74
2022/11/10 07:09:09;;;;;;;;;;;;;;;;;;5114330;28;1404;-74
2022/11/10 07:11:53;;;;;;;;;;;;;;;;;;5097386;28;1506;-73
2022/11/10 07:14:38;;;;;;;;;;;;;;;;;;5105426;28;1455;-73
2022/11/10 07:17:24;;;;;;;;;;;;;;;;;;5107619;28;1430;-71
2022/11/10 07:20:11;;;;;;;;;;;;;;;;;;5091840;28;1878;-72
2022/11/10 07:22:59;;;;;;;;;;;;;;;;;;5097963;28;1967;-73
2022/11/10 07:25:44;;;;;;;;;;;;;;;;;;5115025;28;617;-73
2022/11/10 07:28:29;;;;;;;;;;;;;;;;;;5114987;28;1418;-74
2022/11/10 07:31:14;;;;;;;;;;;;;;;;;;5099027;28;1444;-73
2022/11/10 07:33:58;;;;;;;;;;;;;;;;;;5096377;28;1264;-73
2022/11/10 07:36:44;;;;;;;;;;;;;;;;;;5081561;28;1448;-72
2022/11/10 07:39:29;;;;;;;;;;;;;;;;;;5083350;28;1425;-74
2022/11/10 07:42:14;;;;;;;;;;;;;;;;;;5105002;28;1902;-74
2022/11/10 07:44:59;;;;;;;;;;;;;;;;;;5073127;28;592;-73
2022/11/10 07:47:44;;;;;;;;;;;;;;;;;;5073556;28;1278;-73
2022/11/10 07:50:29;;;;;;;;;;;;;;;;;;5074092;28;694;-74
2022/11/10 07:53:15;;;;;;;;;;;;;;;;;;5073669;28;1387;-74
2022/11/10 07:56:00;;;;;;;;;;;;;;;;;;5086848;28;1433;-74
2022/11/10 07:58:46;;;;;;;;;;;;;;;;;;5104630;28;1364;-73
2022/11/10 08:01:32;;;;;;;;;;;;;;;;;;5087968;28;1531;-73
2022/11/10 08:04:17;;;;;;;;;;;;;;;;;;5106825;28;1906;-74
2022/11/10 08:07:02;;;;;;;;;;;;;;;;;;5096692;28;1399;-74
2022/11/10 08:09:49;;;;;;;;;;;;;;;;;;5097627;28;1180;-74
2022/11/10 08:12:34;;;;;;;;;;;;;;;;;;5102522;28;1199;-74
2022/11/10 08:15:19;;;;;;;;;;;;;;;;;;5114346;28;1258;-74
2022/11/10 08:18:05;;;;;;;;;;;;;;;;;;5105234;28;1452;-74
2022/11/10 08:20:51;;;;;;;;;;;;;;;;;;5095775;28;1273;-73
2022/11/10 08:23:35;;;;;;;;;;;;;;;;;;5101880;28;1910;-74
2022/11/10 08:26:21;;;;;;;;;;;;;;;;;;5096795;28;947;-74
2022/11/10 08:29:06;;;;;;;;;;;;;;;;;;5099638;28;1329;-73
2022/11/10 08:31:52;;;;;;;;;;;;;;;;;;5104307;28;1132;-74
2022/11/10 08:34:36;;;;;;;;;;;;;;;;;;5095470;28;1311;-74
2022/11/10 08:37:21;;;;;;;;;;;;;;;;;;5090592;28;1405;-74
2022/11/10 08:40:07;;;;;;;;;;;;;;;;;;5101071;28;1449;-74
2022/11/10 08:42:58;;;;;;;;;;;;;;;;;;5091829;28;1975;-74
2022/11/10 08:45:43;;;;;;;;;;;;;;;;;;5103230;28;982;-74
2022/11/10 08:48:28;;;;;;;;;;;;;;;;;;5112166;28;1436;-74
2022/11/10 08:51:13;;;;;;;;;;;;;;;;;;5092933;28;683;-74
2022/11/10 08:53:57;;;;;;;;;;;;;;;;;;5090770;28;1316;-73
2022/11/10 08:56:42;;;;;;;;;;;;;;;;;;5102204;28;1371;-73
2022/11/10 08:59:28;;;;;;;;;;;;;;;;;;5099229;28;1357;-74
2022/11/10 09:02:13;;;;;;;;;;;;;;;;;;5100631;28;1223;-73
2022/11/10 09:04:58;;;;;;;;;;;;;;;;;;5078604;28;1331;-73
2022/11/10 09:07:43;;;;;;;;;;;;;;;;;;5092709;28;1365;-75
2022/11/10 09:10:28;;;;;;;;;;;;;;;;;;5092528;28;667;-71
2022/11/10 09:13:14;;;;;;;;;;;;;;;;;;5092013;28;644;-74
2022/11/10 09:16:01;;;;;;;;;;;;;;;;;;5092037;28;698;-73
2022/11/10 09:18:46;;;;;;;;;;;;;;;;;;5075160;28;1504;-74
2022/11/10 09:21:31;;;;;;;;;;;;;;;;;;5080275;28;686;-74
2022/11/10 09:24:15;;;;;;;;;;;;;;;;;;5092092;28;1980;-73
2022/11/10 09:27:00;;;;;;;;;;;;;;;;;;5089375;28;1353;-74
2022/11/10 09:29:45;;;;;;;;;;;;;;;;;;5090125;28;1369;-74
2022/11/10 09:32:32;;;;;;;;;;;;;;;;;;5103647;28;1045;-73
2022/11/10 09:35:16;;;;;;;;;;;;;;;;;;5111839;28;1386;-74
2022/11/10 09:38:01;;;;;;;;;;;;;;;;;;5112499;28;1281;-74
2022/11/10 09:40:50;;;;;;;;;;;;;;;;;;5101699;28;1492;-74
2022/11/10 09:43:35;;;;;;;;;;;;;;;;;;5089840;28;1909;-74
2022/11/10 09:46:23;;;;;;;;;;;;;;;;;;5096167;28;1340;-73
2022/11/10 09:49:11;;;;;;;;;;;;;;;;;;5098829;28;1399;-71
2022/11/10 09:51:56;;;;;;;;;;;;;;;;;;5097055;28;943;-74
2022/11/10 09:54:41;;;;;;;;;;;;;;;;;;5093928;28;1451;-74
2022/11/10 09:57:26;;;;;;;;;;;;;;;;;;5095603;28;1331;-75
2022/11/10 10:00:13;;;;;;;;;;;;;;;;;;5092150;28;1405;-75
2022/11/10 10:02:59;;;;;;;;;;;;;;;;;;5096183;28;1902;-76
2022/11/10 10:05:47;;;;;;;;;;;;;;;;;;5107987;28;1428;-74
2022/11/10 10:08:37;;;;;;;;;;;;;;;;;;5071166;28;1383;-74
2022/11/10 10:11:26;;;;;;;;;;;;;;;;;;5088900;28;1714;-75
2022/11/10 10:14:13;;;;;;;;;;;;;;;;;;5090800;28;1403;-74
2022/11/10 10:16:59;;;;;;;;;;;;;;;;;;5091501;28;1499;-74
2022/11/10 10:19:46;;;;;;;;;;;;;;;;;;5108094;28;1630;-74
2022/11/10 10:22:46;;;;;;;;;;;;;;;;;;5099972;28;1469;-72
2022/11/10 10:25:32;;;;;;;;;;;;;;;;;;5074429;28;623;-75
2022/11/10 10:28:20;;;;;;;;;;;;;;;;;;5074026;28;1316;-75
2022/11/10 10:31:07;;;;;;;;;;;;;;;;;;5078470;28;1404;-74
2022/11/10 10:33:53;;;;;;;;;;;;;;;;;;5095844;28;1530;-75
2022/11/10 10:36:37;;;;;;;;;;;;;;;;;;5089056;28;1574;-74
2022/11/10 10:39:25;;;;;;;;;;;;;;;;;;5087171;28;1371;-72
2022/11/10 10:42:11;;;;;;;;;;;;;;;;;;5095746;28;1435;-75
2022/11/10 10:45:15;;;;;;;;;;;;;;;;;;5097447;28;1906;-74
2022/11/10 10:48:01;;;;;;;;;;;;;;;;;;5094049;28;1294;-74
2022/11/10 10:50:47;;;;;;;;;;;;;;;;;;5094419;28;588;-75
2022/11/10 10:53:32;;;;;;;;;;;;;;;;;;5090372;28;1417;-75
2022/11/10 10:56:20;;;;;;;;;;;;;;;;;;5093691;28;1195;-76
2022/11/10 10:59:05;;;;;;;;;;;;;;;;;;5090102;28;1439;-74
2022/11/10 11:01:52;;;;;;;;;;;;;;;;;;5094458;28;604;-75
2022/11/10 11:04:37;;;;;;;;;;;;;;;;;;5092483;28;1977;-74
2022/11/10 11:07:22;;;;;;;;;;;;;;;;;;5097360;28;1412;-75
2022/11/10 11:10:17;;;;;;;;;;;;;;;;;;5094916;28;1329;-75
2022/11/10 11:13:13;;;;;;;;;;;;;;;;;;5095930;28;1217;-74
2022/11/10 11:15:58;;;;;;;;;;;;;;;;;;5093431;28;1576;-75
2022/11/10 11:18:43;;;;;;;;;;;;;;;;;;5098301;28;1467;-74
2022/11/10 11:21:34;;;;;;;;;;;;;;;;;;5073565;28;591;-75
2022/11/10 11:24:20;;;;;;;;;;;;;;;;;;5092214;28;1902;-74
2022/11/10 11:27:09;;;;;;;;;;;;;;;;;;5107630;28;1365;-75
2022/11/10 11:30:00;;;;;;;;;;;;;;;;;;5101824;28;1653;-74
2022/11/10 11:32:50;;;;;;;;;;;;;;;;;;5097308;28;1382;-75
2022/11/10 11:35:37;;;;;;;;;;;;;;;;;;5096836;28;1348;-75
2022/11/10 11:38:24;;;;;;;;;;;;;;;;;;5087126;28;1376;-75
2022/11/10 11:41:12;;;;;;;;;;;;;;;;;;5094868;28;632;-75
2022/11/10 11:44:05;;;;;;;;;;;;;;;;;;5101483;28;1934;-76
2022/11/10 11:46:53;;;;;;;;;;;;;;;;;;5115517;28;587;-75
2022/11/10 11:49:56;;;;;;;;;;;;;;;;;;5114978;28;1050;-75
2022/11/10 11:52:42;;;;;;;;;;;;;;;;;;5098772;28;1573;-75
2022/11/10 11:55:31;;;;;;;;;;;;;;;;;;5106286;28;1449;-73
2022/11/10 11:58:20;;;;;;;;;;;;;;;;;;5091604;28;1366;-74
2022/11/10 12:01:08;;;;;;;;;;;;;;;;;;5105249;28;1380;-73
2022/11/10 12:04:00;;;;;;;;;;;;;;;;;;5111171;28;1891;-75
2022/11/10 12:06:47;;;;;;;;;;;;;;;;;;5092648;28;1486;-75
2022/11/10 12:09:35;;;;;;;;;;;;;;;;;;5081187;28;700;-74
2022/11/10 12:12:27;;;;;;;;;;;;;;;;;;5097659;28;1495;-75
2022/11/10 12:15:16;;;;;;;;;;;;;;;;;;5127625;22;3583;-79
2022/11/10 12:18:03;;;;;;;;;;;;;;;;;;5076868;28;1059;-80
2022/11/10 12:20:53;;;;;;;;;;;;;;;;;;5079793;28;1416;-81
2022/11/10 12:23:40;;;;;;;;;;;;;;;;;;5080134;28;1979;-80
2022/11/10 12:26:28;;;;;;;;;;;;;;;;;;5096964;28;1337;-80
2022/11/10 12:29:16;;;;;;;;;;;;;;;;;;5095243;28;1936;-80
2022/11/10 12:32:02;;;;;;;;;;;;;;;;;;5088356;28;1210;-79
2022/11/10 12:34:48;;;;;;;;;;;;;;;;;;5098997;28;633;-79
2022/11/10 12:37:35;;;;;;;;;;;;;;;;;;5098553;28;619;-79
2022/11/10 12:40:20;;;;;;;;;;;;;;;;;;5098260;28;683;-80
2022/11/10 12:43:06;;;;;;;;;;;;;;;;;;5097466;28;643;-79
2022/11/10 12:45:51;;;;;;;;;;;;;;;;;;5096606;28;1910;-80
2022/11/10 12:48:37;;;;;;;;;;;;;;;;;;5098527;28;608;-79
2022/11/10 12:51:24;;;;;;;;;;;;;;;;;;5096357;28;638;-79
2022/11/10 12:54:10;;;;;;;;;;;;;;;;;;5097430;28;656;-79
2022/11/10 12:56:56;;;;;;;;;;;;;;;;;;5097997;28;1336;-79
2022/11/10 12:59:41;;;;;;;;;;;;;;;;;;5098171;28;576;-79
2022/11/10 13:02:27;;;;;;;;;;;;;;;;;;5097075;28;630;-78
2022/11/10 13:05:19;;;;;;;;;;;;;;;;;;5097254;28;1967;-79
2022/11/10 13:08:11;;;;;;;;;;;;;;;;;;5096909;28;643;-80
2022/11/10 13:11:00;;;;;;;;;;;;;;;;;;5098342;28;602;-80
2022/11/10 13:13:45;;;;;;;;;;;;;;;;;;5096900;28;1388;-80
2022/11/10 13:16:50;;;;;;;;;;;;;;;;;;5100578;28;1322;-78
2022/11/10 13:19:51;;;;;;;;;;;;;;;;;;5102261;28;639;-79
2022/11/10 13:22:39;;;;;;;;;;;;;;;;;;5109350;28;621;-80
2022/11/10 13:25:43;;;;;;;;;;;;;;;;;;5089889;28;1957;-79
2022/11/10 13:28:46;;;;;;;;;;;;;;;;;;5081216;28;802;-79
2022/11/10 13:31:47;;;;;;;;;;;;;;;;;;5078023;28;595;-79
2022/11/10 13:34:33;;;;;;;;;;;;;;;;;;5077935;28;659;-79
2022/11/10 13:37:36;;;;;;;;;;;;;;;;;;5082429;28;622;-78
2022/11/10 13:40:26;;;;;;;;;;;;;;;;;;5105679;28;1349;-80
2022/11/10 13:43:12;;;;;;;;;;;;;;;;;;5099447;28;669;-79
2022/11/10 13:46:01;;;;;;;;;;;;;;;;;;5096980;28;1959;-80
2022/11/10 13:49:00;;;;;;;;;;;;;;;;;;5091114;28;1328;-80
2022/11/10 13:51:48;;;;;;;;;;;;;;;;;;5076541;28;614;-79
2022/11/10 13:54:49;;;;;;;;;;;;;;;;;;5075553;28;573;-80
2022/11/10 13:57:35;;;;;;;;;;;;;;;;;;5077646;28;671;-79
2022/11/10 14:00:24;;;;;;;;;;;;;;;;;;5083525;28;1264;-79
2022/11/10 14:03:22;;;;;;;;;;;;;;;;;;5056003;28;643;-80
2022/11/10 14:06:09;;;;;;;;;;;;;;;;;;5059684;28;1910;-80
2022/11/10 14:08:56;;;;;;;;;;;;;;;;;;5076791;28;1381;-80
2022/11/10 14:11:42;;;;;;;;;;;;;;;;;;5079609;28;1580;-79
2022/11/10 14:14:29;;;;;;;;;;;;;;;;;;5075996;28;1387;-80
2022/11/10 14:17:15;;;;;;;;;;;;;;;;;;5078531;28;1440;-80
2022/11/10 14:20:00;;;;;;;;;;;;;;;;;;5080234;28;1392;-79
2022/11/10 14:22:46;;;;;;;;;;;;;;;;;;5062895;28;699;-80
2022/11/10 14:25:34;;;;;;;;;;;;;;;;;;5059192;28;1907;-80
2022/11/10 14:28:24;;;;;;;;;;;;;;;;;;5077639;28;1276;-80
2022/11/10 14:31:10;;;;;;;;;;;;;;;;;;5076831;28;615;-80
2022/11/10 14:33:56;;;;;;;;;;;;;;;;;;5076213;28;1437;-80
2022/11/10 14:36:45;;;;;;;;;;;;;;;;;;5078467;28;1310;-80
2022/11/10 14:39:31;;;;;;;;;;;;;;;;;;5076813;28;1458;-80
2022/11/10 14:42:21;;;;;;;;;;;;;;;;;;5081660;28;1712;-78
2022/11/10 14:45:08;;;;;;;;;;;;;;;;;;5014624;28;1910;-78
2022/11/10 14:47:54;;;;;;;;;;;;;;;;;;5003408;28;1280;-79
2022/11/10 14:50:40;;;;;;;;;;;;;;;;;;5016905;28;624;-81
2022/11/10 14:53:28;;;;;;;;;;;;;;;;;;5060058;28;1451;-81
2022/11/10 14:56:14;;;;;;;;;;;;;;;;;;5073696;28;1381;-80
2022/11/10 14:59:00;;;;;;;;;;;;;;;;;;5065552;28;1434;-81
2022/11/10 15:01:48;;;;;;;;;;;;;;;;;;5081166;28;1560;-79
2022/11/10 15:04:35;;;;;;;;;;;;;;;;;;5070580;28;1902;-79
2022/11/10 15:07:20;;;;;;;;;;;;;;;;;;5089601;28;648;-79
2022/11/10 15:10:06;;;;;;;;;;;;;;;;;;5083690;28;1369;-80
2022/11/10 15:12:58;;;;;;;;;;;;;;;;;;5082561;28;1258;-79
2022/11/10 15:15:44;;;;;;;;;;;;;;;;;;5082617;28;1476;-79
2022/11/10 15:18:29;;;;;;;;;;;;;;;;;;5081835;28;1468;-79
2022/11/10 15:21:15;;;;;;;;;;;;;;;;;;5093305;28;1405;-78
2022/11/10 15:24:00;;;;;;;;;;;;;;;;;;5082661;28;1413;-79
2022/11/10 15:26:45;;;;;;;;;;;;;;;;;;5083621;28;1744;-80
2022/11/10 15:29:30;;;;;;;;;;;;;;;;;;5072993;28;1374;-80
2022/11/10 15:32:18;;;;;;;;;;;;;;;;;;5073129;28;1475;-81
2022/11/10 15:35:07;;;;;;;;;;;;;;;;;;5087268;28;1344;-79
2022/11/10 15:37:59;;;;;;;;;;;;;;;;;;5092799;28;1458;-80
2022/11/10 15:40:45;;;;;;;;;;;;;;;;;;5098248;28;605;-80
2022/11/10 15:43:30;;;;;;;;;;;;;;;;;;5078440;28;669;-78
2022/11/10 15:46:15;;;;;;;;;;;;;;;;;;5078759;28;1972;-79
2022/11/10 15:49:02;;;;;;;;;;;;;;;;;;5078613;28;694;-79
2022/11/10 15:51:47;;;;;;;;;;;;;;;;;;5096927;28;1229;-79
2022/11/10 15:54:32;;;;;;;;;;;;;;;;;;5098719;28;713;-80
2022/11/10 15:57:18;;;;;;;;;;;;;;;;;;5065081;28;1501;-79
2022/11/10 16:00:04;;;;;;;;;;;;;;;;;;5058253;28;609;-80
2022/11/10 16:02:49;;;;;;;;;;;;;;;;;;5078217;28;1392;-80
2022/11/10 16:05:38;;;;;;;;;;;;;;;;;;5080971;28;1950;-78
2022/11/10 16:08:23;;;;;;;;;;;;;;;;;;5020880;28;1324;-79
2022/11/10 16:11:10;;;;;;;;;;;;;;;;;;5010097;28;1026;-78
2022/11/10 16:13:55;;;;;;;;;;;;;;;;;;5019526;28;1396;-78
2022/11/10 16:16:40;;;;;;;;;;;;;;;;;;5048431;28;1369;-79
2022/11/10 16:19:25;;;;;;;;;;;;;;;;;;5063709;28;714;-77
2022/11/10 16:22:11;;;;;;;;;;;;;;;;;;5076229;28;1302;-82
2022/11/10 16:24:56;;;;;;;;;;;;;;;;;;5076398;28;1891;-79
2022/11/10 16:27:41;;;;;;;;;;;;;;;;;;5074113;28;1260;-81
2022/11/10 16:30:26;;;;;;;;;;;;;;;;;;5075338;28;1357;-81
2022/11/10 16:33:12;;;;;;;;;;;;;;;;;;5074377;28;1129;-81
2022/11/10 16:35:57;;;;;;;;;;;;;;;;;;5074288;28;1399;-81
2022/11/10 16:38:43;;;;;;;;;;;;;;;;;;5075839;28;616;-79
2022/11/10 16:41:28;;;;;;;;;;;;;;;;;;5075376;28;632;-81
2022/11/10 16:44:13;;;;;;;;;;;;;;;;;;5056302;28;648;-79
2022/11/10 16:46:58;;;;;;;;;;;;;;;;;;5058852;28;1914;-78
2022/11/10 16:49:44;;;;;;;;;;;;;;;;;;5023367;28;991;-77
2022/11/10 16:52:29;;;;;;;;;;;;;;;;;;4998502;28;631;-77
2022/11/10 16:55:16;;;;;;;;;;;;;;;;;;5001666;28;1314;-77
2022/11/10 16:58:02;;;;;;;;;;;;;;;;;;5030547;28;658;-75
2022/11/10 17:00:47;;;;;;;;;;;;;;;;;;5011988;28;1296;-77
2022/11/10 17:03:33;;;;;;;;;;;;;;;;;;4983238;28;601;-76
2022/11/10 17:06:18;;;;;;;;;;;;;;;;;;4981374;28;1995;-79
2022/11/10 17:09:10;;;;;;;;;;;;;;;;;;5004703;28;669;-82
2022/11/10 17:12:01;;;;;;;;;;;;;;;;;;5021377;28;1518;-81
2022/11/10 17:14:46;;;;;;;;;;;;;;;;;;5014828;28;1043;-80
2022/11/10 17:17:32;;;;;;;;;;;;;;;;;;5031101;28;650;-79
2022/11/10 17:20:19;;;;;;;;;;;;;;;;;;5028712;28;648;-79
2022/11/10 17:23:04;;;;;;;;;;;;;;;;;;5001809;28;1411;-81
2022/11/10 17:25:49;;;;;;;;;;;;;;;;;;5012598;28;1933;-79
2022/11/10 17:28:36;;;;;;;;;;;;;;;;;;5004110;28;632;-77
2022/11/10 17:31:21;;;;;;;;;;;;;;;;;;5006817;28;667;-78
2022/11/10 17:34:06;;;;;;;;;;;;;;;;;;4993509;28;730;-78
2022/11/10 17:36:51;;;;;;;;;;;;;;;;;;4987067;28;1358;-78
2022/11/10 17:39:36;;;;;;;;;;;;;;;;;;5011726;28;1035;-78
2022/11/10 17:42:22;;;;;;;;;;;;;;;;;;5032671;28;1114;-79
2022/11/10 17:45:10;;;;;;;;;;;;;;;;;;4985795;28;2015;-78
2022/11/10 17:47:55;;;;;;;;;;;;;;;;;;4987656;28;616;-78
2022/11/10 17:50:43;;;;;;;;;;;;;;;;;;4991880;28;597;-79
2022/11/10 17:53:29;;;;;;;;;;;;;;;;;;4991992;28;1597;-78
2022/11/10 17:56:14;;;;;;;;;;;;;;;;;;5012806;28;1357;-78
2022/11/10 17:58:59;;;;;;;;;;;;;;;;;;5013722;28;657;-77
2022/11/10 18:01:46;;;;;;;;;;;;;;;;;;5032744;28;1433;-79
2022/11/10 18:04:31;;;;;;;;;;;;;;;;;;5015164;28;655;-79
2022/11/10 18:07:17;;;;;;;;;;;;;;;;;;4988295;28;1984;-80
2022/11/10 18:10:02;;;;;;;;;;;;;;;;;;4984472;28;636;-78
2022/11/10 18:12:48;;;;;;;;;;;;;;;;;;4988631;28;1600;-78
2022/11/10 18:15:33;;;;;;;;;;;;;;;;;;5007160;28;1422;-79
2022/11/10 18:21:02;;;;;;;;;;;;;;;;;;4909420;28;1699;-77
2022/11/10 18:23:48;;;;;;;;;;;;;;;;;;4930398;28;1570;-74
2022/11/10 18:26:33;;;;;;;;;;;;;;;;;;4943399;28;1926;-77
2022/11/10 18:29:18;;;;;;;;;;;;;;;;;;4948391;28;1425;-79
2022/11/10 18:32:03;;;;;;;;;;;;;;;;;;4950723;28;593;-73
2022/11/10 18:34:52;;;;;;;;;;;;;;;;;;4950365;28;691;-76
2022/11/10 18:37:38;;;;;;;;;;;;;;;;;;4948511;28;1378;-76
2022/11/10 18:40:23;;;;;;;;;;;;;;;;;;4958709;28;970;-75
2022/11/10 18:43:08;;;;;;;;;;;;;;;;;;4945423;28;1424;-75
2022/11/10 18:45:54;;;;;;;;;;;;;;;;;;4949042;28;1994;-75
2022/11/10 18:48:39;;;;;;;;;;;;;;;;;;4938375;28;1475;-77
2022/11/10 18:51:24;;;;;;;;;;;;;;;;;;4946546;28;672;-76
2022/11/10 18:54:11;;;;;;;;;;;;;;;;;;4927713;28;703;-74
2022/11/10 18:56:57;;;;;;;;;;;;;;;;;;4928393;28;695;-75
2022/11/10 18:59:42;;;;;;;;;;;;;;;;;;4917275;28;1473;-74
2022/11/10 19:02:27;;;;;;;;;;;;;;;;;;4929707;28;582;-74
2022/11/10 19:05:12;;;;;;;;;;;;;;;;;;4935812;28;635;-78
2022/11/10 19:07:57;;;;;;;;;;;;;;;;;;4935863;28;1396;-75
2022/11/10 19:10:44;;;;;;;;;;;;;;;;;;4947786;28;1515;-74
2022/11/10 19:13:29;;;;;;;;;;;;;;;;;;4937033;28;1461;-75
2022/11/10 19:16:15;;;;;;;;;;;;;;;;;;4921564;28;660;-75
2022/11/10 19:19:00;;;;;;;;;;;;;;;;;;4922758;28;1424;-77
2022/11/10 19:21:46;;;;;;;;;;;;;;;;;;4929337;28;1546;-74
2022/11/10 19:24:31;;;;;;;;;;;;;;;;;;4930129;28;646;-75
2022/11/10 19:27:17;;;;;;;;;;;;;;;;;;4927450;28;2082;-74
2022/11/10 19:30:03;;;;;;;;;;;;;;;;;;4929124;28;632;-78
2022/11/10 19:32:48;;;;;;;;;;;;;;;;;;4935699;28;1441;-76
2022/11/10 19:35:33;;;;;;;;;;;;;;;;;;5002343;28;1374;-77